Bristol, Wisconsin
Current Conditions -  °F | °C
As of 4:36 AM on Saturday 25 Oct 2014 (Local Time) from KENW Reporting Station
Haze Haze  
Wind Chill: 57°   Ceiling: 1000
Heat Index: 57°   Visibility: 5mi
Dew Point: 54°   Wind: 10mph
Humidity: 89%   Direction: 280°W
Pressure: 29.88"   Gusts: NA
Location:  42.56°N, 88.05°W
Report Text: KENW 250936Z AUTO 28009KT 5SM BR BKN010 14/12 A2988 RMK AO2 T01390122
Loading
Personal Weather Stations






























Interactive Weather Map
Tropical Storm Tracking
New forecast layout! Learn more

10-Day Weather Forecast

Advertisements
Track Severe Weather on mobile